Time;durP1;ratioP1;P1;durP2;ratioP2;P2;SDS_P1;SDS_P2;PMS_P1;PMS_P2;Temp;Humidity;BMP_temperature;BMP_pressure;BME280_temperature;BME280_humidity;BME280_pressure;Samples;Min_cycle;Max_cycle;Signal;HPM_P1;HPM_P2
2024/02/20 00:01:39;;;;;;;0.10;0.10;;;;;;;;;;5035017;28;20271;-72
2024/02/20 00:04:08;;;;;;;0.10;0.10;;;;;;;;;;5033994;28;20280;-72
2024/02/20 00:06:35;;;;;;;0.10;0.10;;;;;;;;;;5036500;28;20366;-72
2024/02/20 00:09:02;;;;;;;0.10;0.10;;;;;;;;;;5032454;28;20239;-72
2024/02/20 00:11:30;;;;;;;0.13;0.13;;;;;;;;;;5034637;28;20573;-72
2024/02/20 00:13:57;;;;;;;0.10;0.10;;;;;;;;;;5034372;28;20208;-72
2024/02/20 00:16:24;;;;;;;0.10;0.10;;;;;;;;;;5033564;28;20250;-72
2024/02/20 00:18:51;;;;;;;0.10;0.10;;;;;;;;;;5035441;28;20244;-73
2024/02/20 00:21:17;;;;;;;0.10;0.10;;;;;;;;;;5031535;28;20443;-72
2024/02/20 00:23:44;;;;;;;0.40;0.40;;;;;;;;;;5037250;28;20278;-73
2024/02/20 00:26:10;;;;;;;0.20;0.20;;;;;;;;;;5029844;28;20308;-72
2024/02/20 00:28:40;;;;;;;0.20;0.20;;;;;;;;;;5039095;28;20277;-72
2024/02/20 00:31:07;;;;;;;0.10;0.10;;;;;;;;;;5028731;28;20237;-73
2024/02/20 00:33:33;;;;;;;0.10;0.10;;;;;;;;;;5039823;28;20206;-72
2024/02/20 00:35:59;;;;;;;0.10;0.10;;;;;;;;;;5025896;28;20359;-73
2024/02/20 00:38:26;;;;;;;0.70;0.70;;;;;;;;;;5042515;28;20272;-73
2024/02/20 00:40:52;;;;;;;0.20;0.20;;;;;;;;;;5024829;28;20241;-73
2024/02/20 00:43:18;;;;;;;0.10;0.10;;;;;;;;;;5043439;28;20278;-73
2024/02/20 00:45:46;;;;;;;0.17;0.17;;;;;;;;;;5022712;28;20295;-72
2024/02/20 00:48:12;;;;;;;0.10;0.10;;;;;;;;;;5045714;28;20432;-72
2024/02/20 00:50:39;;;;;;;0.10;0.10;;;;;;;;;;5020950;28;20256;-73
2024/02/20 00:53:05;;;;;;;0.10;0.10;;;;;;;;;;5047764;28;20244;-73
2024/02/20 00:55:32;;;;;;;0.10;0.10;;;;;;;;;;5019589;28;20499;-73
2024/02/20 00:57:58;;;;;;;0.10;0.10;;;;;;;;;;5049004;28;20206;-73
2024/02/20 01:00:25;;;;;;;0.10;0.10;;;;;;;;;;5017540;28;20227;-72
2024/02/20 01:02:53;;;;;;;0.10;0.10;;;;;;;;;;5051011;28;20217;-73
2024/02/20 01:05:19;;;;;;;0.10;0.10;;;;;;;;;;5016006;28;20401;-72
2024/02/20 01:07:46;;;;;;;0.10;0.10;;;;;;;;;;5052024;28;20241;-73
2024/02/20 01:10:12;;;;;;;0.10;0.10;;;;;;;;;;5013965;28;20222;-73
2024/02/20 01:12:39;;;;;;;0.20;0.20;;;;;;;;;;5054134;28;20214;-72
2024/02/20 01:15:06;;;;;;;0.10;0.10;;;;;;;;;;5023474;28;20208;-72
2024/02/20 01:17:33;;;;;;;0.10;0.10;;;;;;;;;;5045117;28;20251;-73
2024/02/20 01:20:00;;;;;;;0.10;0.10;;;;;;;;;;5023392;28;20236;-72
2024/02/20 01:22:27;;;;;;;0.10;0.10;;;;;;;;;;5044842;28;20311;-72
2024/02/20 01:24:53;;;;;;;0.10;0.10;;;;;;;;;;5023114;28;20274;-73
2024/02/20 01:27:20;;;;;;;0.10;0.10;;;;;;;;;;5044881;28;20257;-72
2024/02/20 01:29:46;;;;;;;0.57;0.57;;;;;;;;;;5023046;28;20268;-72
2024/02/20 01:32:13;;;;;;;0.10;0.10;;;;;;;;;;5044953;28;20296;-73
2024/02/20 01:34:39;;;;;;;0.50;0.50;;;;;;;;;;5022949;28;20248;-72
2024/02/20 01:37:07;;;;;;;0.10;0.10;;;;;;;;;;5043753;28;20250;-72
2024/02/20 01:39:34;;;;;;;0.17;0.17;;;;;;;;;;5023717;28;20216;-72
2024/02/20 01:42:01;;;;;;;0.20;0.20;;;;;;;;;;5042342;28;20267;-73
2024/02/20 01:44:31;;;;;;;0.10;0.10;;;;;;;;;;5025257;28;20213;-73
2024/02/20 01:46:57;;;;;;;0.10;0.10;;;;;;;;;;5041480;28;20266;-72
2024/02/20 01:49:24;;;;;;;0.10;0.10;;;;;;;;;;5027846;28;20238;-73
2024/02/20 01:51:51;;;;;;;0.10;0.10;;;;;;;;;;5043311;28;20241;-72
2024/02/20 01:54:19;;;;;;;0.10;0.10;;;;;;;;;;5031043;28;20205;-72
2024/02/20 01:56:46;;;;;;;0.10;0.10;;;;;;;;;;5041938;28;20313;-73
2024/02/20 01:59:12;;;;;;;0.10;0.10;;;;;;;;;;5032166;28;20243;-72
2024/02/20 02:01:39;;;;;;;0.20;0.20;;;;;;;;;;5040090;28;20244;-73
2024/02/20 02:04:05;;;;;;;0.10;0.10;;;;;;;;;;5033654;28;20207;-73
2024/02/20 02:06:32;;;;;;;0.10;0.10;;;;;;;;;;5038097;28;20260;-73
2024/02/20 02:08:59;;;;;;;0.10;0.10;;;;;;;;;;5035120;28;20234;-73
2024/02/20 02:11:26;;;;;;;0.20;0.20;;;;;;;;;;5036434;28;20472;-72
2024/02/20 02:13:53;;;;;;;0.10;0.10;;;;;;;;;;5036901;28;20199;-73
2024/02/20 02:16:19;;;;;;;0.10;0.10;;;;;;;;;;5034712;28;20619;-72
2024/02/20 02:18:45;;;;;;;0.10;0.10;;;;;;;;;;5038777;28;20529;-73
2024/02/20 02:21:12;;;;;;;0.10;0.10;;;;;;;;;;5032478;28;20463;-72
2024/02/20 02:23:39;;;;;;;0.10;0.10;;;;;;;;;;5040555;28;20423;-73
2024/02/20 02:26:09;;;;;;;0.10;0.10;;;;;;;;;;5031032;28;20249;-72
2024/02/20 02:28:35;;;;;;;0.10;0.10;;;;;;;;;;5041229;28;20209;-72
2024/02/20 02:31:02;;;;;;;0.13;0.13;;;;;;;;;;5029534;28;20241;-72
2024/02/20 02:33:28;;;;;;;0.20;0.20;;;;;;;;;;5043333;28;20242;-73
2024/02/20 02:35:54;;;;;;;0.10;0.10;;;;;;;;;;5027697;28;20312;-72
2024/02/20 02:38:21;;;;;;;0.10;0.10;;;;;;;;;;5045224;28;20227;-73
2024/02/20 02:40:47;;;;;;;0.10;0.10;;;;;;;;;;5025499;28;20236;-72
2024/02/20 02:43:15;;;;;;;0.10;0.10;;;;;;;;;;5046675;28;20208;-72
2024/02/20 02:45:42;;;;;;;0.10;0.10;;;;;;;;;;5024144;28;20314;-73
2024/02/20 02:48:08;;;;;;;0.10;0.10;;;;;;;;;;5048460;28;20221;-73
2024/02/20 02:50:35;;;;;;;0.10;0.10;;;;;;;;;;5022458;28;20264;-73
2024/02/20 02:53:01;;;;;;;0.20;0.20;;;;;;;;;;5049812;28;20221;-72
2024/02/20 02:55:28;;;;;;;0.10;0.10;;;;;;;;;;5020550;28;20251;-71
2024/02/20 02:57:54;;;;;;;0.20;0.20;;;;;;;;;;5051857;28;20208;-72
2024/02/20 03:00:22;;;;;;;0.13;0.13;;;;;;;;;;5017527;28;20226;-71
2024/02/20 03:02:48;;;;;;;0.10;0.10;;;;;;;;;;5053470;28;20265;-72
2024/02/20 03:05:16;;;;;;;0.10;0.10;;;;;;;;;;5016828;28;20208;-72
2024/02/20 03:07:43;;;;;;;0.13;0.13;;;;;;;;;;5054575;28;20239;-72
2024/02/20 03:10:11;;;;;;;0.10;0.10;;;;;;;;;;5019274;28;20392;-72
2024/02/20 03:12:37;;;;;;;0.10;0.10;;;;;;;;;;5055977;28;20286;-72
2024/02/20 03:15:04;;;;;;;0.10;0.10;;;;;;;;;;5024748;28;20211;-72
2024/02/20 03:17:32;;;;;;;0.20;0.20;;;;;;;;;;5046718;28;20306;-72
2024/02/20 03:19:58;;;;;;;0.10;0.10;;;;;;;;;;5024574;28;20246;-72
2024/02/20 03:22:24;;;;;;;0.10;0.10;;;;;;;;;;5046489;28;20311;-71
2024/02/20 03:24:52;;;;;;;0.13;0.13;;;;;;;;;;5024534;28;20238;-73
2024/02/20 03:27:18;;;;;;;0.10;0.10;;;;;;;;;;5046470;28;20241;-71
2024/02/20 03:29:45;;;;;;;0.10;0.10;;;;;;;;;;5024368;28;20212;-72
2024/02/20 03:32:11;;;;;;;0.10;0.10;;;;;;;;;;5046468;28;20451;-72
2024/02/20 03:34:39;;;;;;;0.10;0.10;;;;;;;;;;5024709;28;20394;-72
2024/02/20 03:37:05;;;;;;;0.13;0.13;;;;;;;;;;5045379;28;20445;-72
2024/02/20 03:39:32;;;;;;;0.10;0.10;;;;;;;;;;5025230;28;20402;-72
2024/02/20 03:41:58;;;;;;;0.10;0.10;;;;;;;;;;5043099;28;20249;-72
2024/02/20 03:44:25;;;;;;;0.10;0.10;;;;;;;;;;5026862;28;20205;-72
2024/02/20 03:46:51;;;;;;;0.10;0.10;;;;;;;;;;5041418;28;20312;-72
2024/02/20 03:49:17;;;;;;;0.10;0.10;;;;;;;;;;5028935;28;20239;-71
2024/02/20 03:51:46;;;;;;;0.10;0.10;;;;;;;;;;5039250;28;20305;-72
2024/02/20 03:54:12;;;;;;;0.57;0.57;;;;;;;;;;5030081;28;20239;-72
2024/02/20 03:56:38;;;;;;;0.17;0.17;;;;;;;;;;5037928;28;20495;-72
2024/02/20 03:59:05;;;;;;;0.10;0.10;;;;;;;;;;5031627;28;20209;-72
2024/02/20 04:01:31;;;;;;;0.13;0.13;;;;;;;;;;5035770;28;20284;-72
2024/02/20 04:03:58;;;;;;;0.40;0.40;;;;;;;;;;5033848;28;20245;-71
2024/02/20 04:06:24;;;;;;;0.10;0.10;;;;;;;;;;5033944;28;20419;-72
2024/02/20 04:08:52;;;;;;;0.10;0.10;;;;;;;;;;5035520;28;20491;-73
2024/02/20 04:11:18;;;;;;;0.10;0.10;;;;;;;;;;5031244;28;20776;-73
2024/02/20 04:13:44;;;;;;;0.10;0.10;;;;;;;;;;5037162;28;20207;-74
2024/02/20 04:16:11;;;;;;;0.10;0.10;;;;;;;;;;5030200;28;20249;-73
2024/02/20 04:18:37;;;;;;;0.10;0.10;;;;;;;;;;5039181;28;20405;-73
2024/02/20 04:21:04;;;;;;;0.20;0.20;;;;;;;;;;5027904;28;20246;-73
2024/02/20 04:23:30;;;;;;;0.10;0.10;;;;;;;;;;5041182;28;20215;-73
2024/02/20 04:25:58;;;;;;;0.10;0.10;;;;;;;;;;5026340;28;20312;-73
2024/02/20 04:28:24;;;;;;;0.10;0.10;;;;;;;;;;5042426;28;20215;-73
2024/02/20 04:30:50;;;;;;;0.20;0.20;;;;;;;;;;5024734;28;20241;-73
2024/02/20 04:33:17;;;;;;;0.20;0.20;;;;;;;;;;5044480;28;20278;-73
2024/02/20 04:35:43;;;;;;;0.10;0.10;;;;;;;;;;5022624;28;20252;-71
2024/02/20 04:38:10;;;;;;;0.20;0.20;;;;;;;;;;5046417;28;20401;-72
2024/02/20 04:40:37;;;;;;;0.20;0.20;;;;;;;;;;5020558;28;20240;-72
2024/02/20 04:43:06;;;;;;;0.10;0.10;;;;;;;;;;5047930;28;20206;-73
2024/02/20 04:45:32;;;;;;;0.20;0.20;;;;;;;;;;5019597;28;20597;-73
2024/02/20 04:47:58;;;;;;;0.10;0.10;;;;;;;;;;5049059;28;20303;-72
2024/02/20 04:50:25;;;;;;;0.10;0.10;;;;;;;;;;5017679;28;20455;-72
2024/02/20 04:52:51;;;;;;;0.10;0.10;;;;;;;;;;5051095;28;20229;-71
2024/02/20 04:55:18;;;;;;;0.10;0.10;;;;;;;;;;5015829;28;20197;-73
2024/02/20 04:57:45;;;;;;;0.20;0.20;;;;;;;;;;5052812;28;20247;-73
2024/02/20 05:00:13;;;;;;;0.20;0.20;;;;;;;;;;5014424;28;20284;-73
2024/02/20 05:02:40;;;;;;;0.10;0.10;;;;;;;;;;5054091;28;20239;-71
2024/02/20 05:05:07;;;;;;;0.10;0.10;;;;;;;;;;5023396;28;20280;-71
2024/02/20 05:07:34;;;;;;;0.10;0.10;;;;;;;;;;5011931;28;20219;-71
2024/02/20 05:10:00;;;;;;;0.10;0.10;;;;;;;;;;5023064;28;20257;-71
2024/02/20 05:12:27;;;;;;;0.10;0.10;;;;;;;;;;5045243;28;20243;-71
2024/02/20 05:14:53;;;;;;;0.20;0.20;;;;;;;;;;5023045;28;20277;-71
2024/02/20 05:17:21;;;;;;;0.10;0.10;;;;;;;;;;5045320;28;20475;-71
2024/02/20 05:19:47;;;;;;;0.10;0.10;;;;;;;;;;5023075;28;20204;-71
2024/02/20 05:22:15;;;;;;;0.20;0.20;;;;;;;;;;5045381;28;20241;-72
2024/02/20 05:24:42;;;;;;;0.10;0.10;;;;;;;;;;5026842;28;20205;-71
2024/02/20 05:27:09;;;;;;;0.10;0.10;;;;;;;;;;5048564;28;20242;-71
2024/02/20 05:29:35;;;;;;;0.13;0.13;;;;;;;;;;5026958;28;20207;-72
2024/02/20 05:32:01;;;;;;;0.10;0.10;;;;;;;;;;5046695;28;20494;-71
2024/02/20 05:34:29;;;;;;;0.10;0.10;;;;;;;;;;5028284;28;20206;-72
2024/02/20 05:36:56;;;;;;;0.10;0.10;;;;;;;;;;5044632;28;20311;-72
2024/02/20 05:39:22;;;;;;;0.10;0.10;;;;;;;;;;5030291;28;20233;-73
2024/02/20 05:41:48;;;;;;;0.10;0.10;;;;;;;;;;5042783;28;20271;-73
2024/02/20 05:44:15;;;;;;;0.10;0.10;;;;;;;;;;5032114;28;20237;-73
2024/02/20 05:46:41;;;;;;;0.10;0.10;;;;;;;;;;5040749;28;20272;-73
2024/02/20 05:49:07;;;;;;;0.10;0.10;;;;;;;;;;5033968;28;20210;-72
2024/02/20 05:51:35;;;;;;;0.10;0.10;;;;;;;;;;5038809;28;20240;-72
2024/02/20 05:54:02;;;;;;;0.27;0.27;;;;;;;;;;5035656;28;20261;-72
2024/02/20 05:56:28;;;;;;;0.10;0.10;;;;;;;;;;5037114;28;20269;-72
2024/02/20 05:58:54;;;;;;;0.10;0.10;;;;;;;;;;5037318;28;20279;-71
2024/02/20 06:01:21;;;;;;;0.20;0.20;;;;;;;;;;5034077;28;20246;-72
2024/02/20 06:03:47;;;;;;;0.10;0.10;;;;;;;;;;5039485;28;20209;-72
2024/02/20 06:06:14;;;;;;;0.50;0.50;;;;;;;;;;5033299;28;20240;-71
2024/02/20 06:08:42;;;;;;;0.10;0.10;;;;;;;;;;5040353;28;20439;-72
2024/02/20 06:11:12;;;;;;;0.10;0.10;;;;;;;;;;5031488;28;20249;-72
2024/02/20 06:13:38;;;;;;;0.10;0.10;;;;;;;;;;5041000;28;20277;-72
2024/02/20 06:16:05;;;;;;;0.20;0.20;;;;;;;;;;5030594;28;20304;-72
2024/02/20 06:18:31;;;;;;;0.10;0.10;;;;;;;;;;5042489;28;20204;-73
2024/02/20 06:20:57;;;;;;;0.17;0.17;;;;;;;;;;5028126;28;20299;-72
2024/02/20 06:23:24;;;;;;;0.20;0.20;;;;;;;;;;5044893;28;20206;-72
2024/02/20 06:25:51;;;;;;;0.53;0.43;;;;;;;;;;5026802;28;20262;-72
2024/02/20 06:28:19;;;;;;;0.10;0.10;;;;;;;;;;5046404;28;20280;-72
2024/02/20 06:30:47;;;;;;;0.10;0.10;;;;;;;;;;5025380;28;20240;-72
2024/02/20 06:33:13;;;;;;;0.20;0.20;;;;;;;;;;5047150;28;20210;-73
2024/02/20 06:35:41;;;;;;;2.67;2.57;;;;;;;;;;5022965;28;20479;-72
2024/02/20 06:38:08;;;;;;;0.20;0.20;;;;;;;;;;5048891;28;20206;-72
2024/02/20 06:40:34;;;;;;;0.10;0.10;;;;;;;;;;5021848;28;20312;-72
2024/02/20 06:43:02;;;;;;;0.10;0.10;;;;;;;;;;5050225;28;20232;-73
2024/02/20 06:45:28;;;;;;;0.10;0.10;;;;;;;;;;5020224;28;20562;-73
2024/02/20 06:47:55;;;;;;;0.10;0.10;;;;;;;;;;5052038;28;20219;-72
2024/02/20 06:50:21;;;;;;;0.10;0.10;;;;;;;;;;5018289;28;20214;-73
2024/02/20 06:52:47;;;;;;;0.10;0.10;;;;;;;;;;5053618;28;20204;-72
2024/02/20 06:55:14;;;;;;;0.10;0.10;;;;;;;;;;5016364;28;20231;-71
2024/02/20 06:57:40;;;;;;;0.10;0.10;;;;;;;;;;5055697;28;20393;-71
2024/02/20 07:00:11;;;;;;;0.10;0.10;;;;;;;;;;5025167;28;20207;-71
2024/02/20 07:02:38;;;;;;;0.10;0.10;;;;;;;;;;5014097;28;20286;-72
2024/02/20 07:05:05;;;;;;;0.10;0.10;;;;;;;;;;5024977;28;20205;-72
2024/02/20 07:07:31;;;;;;;0.10;0.10;;;;;;;;;;5046772;28;20254;-71
2024/02/20 07:09:58;;;;;;;0.10;0.10;;;;;;;;;;5025127;28;20275;-72
2024/02/20 07:12:24;;;;;;;0.10;0.10;;;;;;;;;;5047004;28;20541;-71
2024/02/20 07:14:50;;;;;;;0.10;0.10;;;;;;;;;;5024893;28;20229;-72
2024/02/20 07:17:18;;;;;;;0.17;0.17;;;;;;;;;;5046795;28;20248;-72
2024/02/20 07:19:44;;;;;;;0.10;0.10;;;;;;;;;;5024642;28;20207;-72
2024/02/20 07:22:11;;;;;;;0.10;0.10;;;;;;;;;;5046585;28;20257;-72
2024/02/20 07:24:37;;;;;;;0.10;0.10;;;;;;;;;;5024549;28;20281;-72
2024/02/20 07:27:04;;;;;;;0.17;0.17;;;;;;;;;;5045178;28;20490;-71
2024/02/20 07:29:30;;;;;;;0.10;0.10;;;;;;;;;;5025663;28;20395;-72
2024/02/20 07:31:57;;;;;;;0.10;0.10;;;;;;;;;;5043175;28;20236;-72
2024/02/20 07:34:25;;;;;;;0.10;0.10;;;;;;;;;;5027700;28;20278;-71
2024/02/20 07:36:51;;;;;;;0.10;0.10;;;;;;;;;;5041676;28;20447;-73
2024/02/20 07:39:18;;;;;;;0.10;0.10;;;;;;;;;;5029128;28;20396;-73
2024/02/20 07:41:44;;;;;;;0.20;0.20;;;;;;;;;;5039615;28;20237;-73
2024/02/20 07:44:11;;;;;;;0.10;0.10;;;;;;;;;;5030491;28;20209;-72
2024/02/20 07:46:38;;;;;;;0.10;0.10;;;;;;;;;;5037529;28;20308;-73
2024/02/20 07:49:04;;;;;;;0.10;0.10;;;;;;;;;;5032395;28;20245;-74
2024/02/20 07:51:34;;;;;;;0.10;0.10;;;;;;;;;;5035568;28;20311;-74
2024/02/20 07:54:00;;;;;;;0.10;0.10;;;;;;;;;;5033640;28;20276;-74
2024/02/20 07:56:28;;;;;;;0.10;0.10;;;;;;;;;;5034742;28;20253;-74
2024/02/20 07:58:55;;;;;;;0.10;0.10;;;;;;;;;;5034778;28;20207;-74
2024/02/20 08:01:22;;;;;;;0.10;0.10;;;;;;;;;;5032514;28;20265;-74
2024/02/20 08:03:49;;;;;;;0.10;0.10;;;;;;;;;;5036875;28;20206;-74
2024/02/20 08:06:16;;;;;;;0.10;0.10;;;;;;;;;;5031496;28;20285;-74
2024/02/20 08:08:43;;;;;;;0.10;0.10;;;;;;;;;;5037781;28;20272;-74
2024/02/20 08:11:10;;;;;;;0.10;0.10;;;;;;;;;;5029865;28;20503;-74
2024/02/20 08:13:36;;;;;;;0.10;0.10;;;;;;;;;;5039825;28;20274;-75
2024/02/20 08:16:03;;;;;;;0.10;0.10;;;;;;;;;;5027997;28;20254;-75
2024/02/20 08:18:29;;;;;;;0.20;0.20;;;;;;;;;;5041149;28;20278;-74
2024/02/20 08:20:56;;;;;;;0.10;0.10;;;;;;;;;;5025991;28;20283;-74
2024/02/20 08:23:22;;;;;;;0.10;0.10;;;;;;;;;;5043216;28;20229;-75
2024/02/20 08:25:50;;;;;;;0.20;0.20;;;;;;;;;;5024014;28;20247;-74
2024/02/20 08:28:17;;;;;;;0.10;0.10;;;;;;;;;;5044997;28;20465;-75
2024/02/20 08:30:45;;;;;;;0.10;0.10;;;;;;;;;;5022585;28;20243;-74
2024/02/20 08:33:11;;;;;;;0.20;0.20;;;;;;;;;;5045820;28;20202;-75
2024/02/20 08:35:38;;;;;;;0.10;0.10;;;;;;;;;;5020852;28;20262;-74
2024/02/20 08:38:04;;;;;;;0.10;0.10;;;;;;;;;;5048051;28;20207;-75
2024/02/20 08:40:31;;;;;;;0.10;0.10;;;;;;;;;;5019435;28;20274;-74
2024/02/20 08:42:58;;;;;;;0.10;0.10;;;;;;;;;;5049560;28;20464;-75
2024/02/20 08:45:25;;;;;;;0.10;0.10;;;;;;;;;;5017907;28;20277;-74
2024/02/20 08:47:51;;;;;;;0.10;0.10;;;;;;;;;;5050938;28;20249;-75
2024/02/20 08:50:18;;;;;;;0.10;0.10;;;;;;;;;;5015510;28;20283;-74
2024/02/20 08:52:44;;;;;;;0.17;0.17;;;;;;;;;;5053129;28;20202;-74
2024/02/20 08:55:11;;;;;;;0.10;0.10;;;;;;;;;;5014033;28;20211;-74
2024/02/20 08:57:37;;;;;;;0.10;0.10;;;;;;;;;;5055954;28;20206;-75
2024/02/20 09:00:08;;;;;;;0.10;0.10;;;;;;;;;;5027260;28;20273;-75
2024/02/20 09:02:34;;;;;;;0.10;0.10;;;;;;;;;;5016472;28;20396;-75
2024/02/20 09:05:00;;;;;;;0.10;0.10;;;;;;;;;;5027515;28;20252;-74
2024/02/20 09:07:27;;;;;;;0.10;0.10;;;;;;;;;;5049015;28;20263;-75
2024/02/20 09:09:53;;;;;;;0.10;0.10;;;;;;;;;;5027591;28;20385;-75
2024/02/20 09:12:19;;;;;;;0.10;0.10;;;;;;;;;;5049164;28;20251;-75
2024/02/20 09:14:46;;;;;;;0.10;0.10;;;;;;;;;;5027136;28;20208;-75
2024/02/20 09:17:13;;;;;;;0.10;0.10;;;;;;;;;;5049124;28;20251;-75
2024/02/20 09:19:40;;;;;;;0.10;0.10;;;;;;;;;;5026953;28;20241;-74
2024/02/20 09:22:10;;;;;;;0.10;0.10;;;;;;;;;;5048122;28;20233;-75
2024/02/20 09:24:36;;;;;;;0.10;0.10;;;;;;;;;;5027278;28;20271;-75
2024/02/20 09:27:03;;;;;;;0.10;0.10;;;;;;;;;;5046995;28;20538;-76
2024/02/20 09:29:31;;;;;;;0.00;0.00;;;;;;;;;;5028742;28;20205;-75
2024/02/20 09:31:58;;;;;;;0.10;0.10;;;;;;;;;;5045583;28;20256;-75
2024/02/20 09:34:25;;;;;;;0.10;0.10;;;;;;;;;;5029765;28;20212;-76
2024/02/20 09:36:52;;;;;;;0.10;0.10;;;;;;;;;;5043710;28;20300;-75
2024/02/20 09:39:21;;;;;;;0.10;0.10;;;;;;;;;;5031303;28;20205;-76
2024/02/20 09:41:50;;;;;;;0.10;0.10;;;;;;;;;;5042756;28;20581;-76
2024/02/20 09:44:17;;;;;;;0.10;0.10;;;;;;;;;;5031458;28;20221;-76
2024/02/20 09:46:51;;;;;;;0.10;0.10;;;;;;;;;;5041398;28;20290;-75
2024/02/20 09:49:18;;;;;;;0.10;0.10;;;;;;;;;;5031362;28;20246;-74
2024/02/20 09:51:46;;;;;;;0.10;0.10;;;;;;;;;;5041544;28;20239;-74
2024/02/20 09:54:14;;;;;;;0.10;0.10;;;;;;;;;;5032620;28;20205;-75
2024/02/20 09:56:41;;;;;;;0.10;0.10;;;;;;;;;;5040424;28;20523;-74
2024/02/20 09:59:07;;;;;;;0.10;0.10;;;;;;;;;;5033684;28;20271;-75
2024/02/20 10:01:34;;;;;;;0.10;0.10;;;;;;;;;;5038947;28;20241;-75
2024/02/20 10:04:03;;;;;;;0.10;0.10;;;;;;;;;;5035029;28;20233;-76
2024/02/20 10:06:30;;;;;;;0.10;0.10;;;;;;;;;;5037617;28;20259;-76
2024/02/20 10:08:58;;;;;;;0.10;0.10;;;;;;;;;;5034428;28;20243;-77
2024/02/20 10:11:25;;;;;;;0.10;0.10;;;;;;;;;;5036210;28;20256;-77
2024/02/20 10:13:51;;;;;;;0.10;0.10;;;;;;;;;;5037923;28;20461;-76
2024/02/20 10:16:18;;;;;;;0.10;0.10;;;;;;;;;;5034054;28;20274;-76
2024/02/20 10:18:44;;;;;;;0.10;0.10;;;;;;;;;;5039753;28;20470;-77
2024/02/20 10:21:13;;;;;;;0.10;0.10;;;;;;;;;;5032115;28;20311;-76
2024/02/20 10:23:40;;;;;;;1.03;1.03;;;;;;;;;;5040337;28;20230;-75
2024/02/20 10:26:08;;;;;;;0.10;0.10;;;;;;;;;;5036593;28;20297;-76
2024/02/20 10:28:34;;;;;;;0.10;0.10;;;;;;;;;;5062103;28;20210;-75
2024/02/20 10:31:00;;;;;;;0.10;0.10;;;;;;;;;;5049252;28;20258;-76
2024/02/20 10:33:27;;;;;;;0.10;0.10;;;;;;;;;;5063599;28;20268;-75
2024/02/20 10:36:03;;;;;;;0.10;0.10;;;;;;;;;;5047323;28;20246;-76
2024/02/20 10:38:30;;;;;;;0.10;0.10;;;;;;;;;;5062825;28;20212;-75
2024/02/20 10:40:57;;;;;;;0.10;0.10;;;;;;;;;;5047767;28;20242;-75
2024/02/20 10:43:26;;;;;;;0.10;0.10;;;;;;;;;;5064846;28;20559;-75
2024/02/20 10:45:54;;;;;;;0.10;0.10;;;;;;;;;;5046595;28;20306;-75
2024/02/20 10:48:25;;;;;;;0.10;0.10;;;;;;;;;;5065542;28;20464;-75
2024/02/20 10:50:51;;;;;;;0.10;0.10;;;;;;;;;;5046359;28;20268;-74
2024/02/20 10:53:18;;;;;;;0.10;0.10;;;;;;;;;;5065915;28;20319;-75
2024/02/20 10:55:45;;;;;;;0.10;0.10;;;;;;;;;;5044591;28;20241;-75
2024/02/20 10:58:17;;;;;;;0.10;0.10;;;;;;;;;;5067620;28;20212;-75
2024/02/20 11:00:46;;;;;;;0.10;0.10;;;;;;;;;;5044170;28;20246;-75
2024/02/20 11:03:13;;;;;;;0.10;0.10;;;;;;;;;;5067431;28;20564;-76
2024/02/20 11:05:39;;;;;;;0.10;0.10;;;;;;;;;;5043117;28;20240;-74
2024/02/20 11:08:07;;;;;;;0.10;0.10;;;;;;;;;;5068611;28;20246;-74
2024/02/20 11:10:35;;;;;;;0.10;0.10;;;;;;;;;;5041290;28;21037;-75
2024/02/20 11:13:11;;;;;;;0.10;0.10;;;;;;;;;;5070063;28;20389;-76
2024/02/20 11:15:37;;;;;;;0.10;0.10;;;;;;;;;;5042301;28;20239;-76
2024/02/20 11:18:14;;;;;;;0.10;0.10;;;;;;;;;;5069116;28;20280;-76
2024/02/20 11:20:40;;;;;;;0.10;0.10;;;;;;;;;;5042662;28;20370;-76
2024/02/20 11:23:08;;;;;;;0.10;0.10;;;;;;;;;;5068220;28;20292;-76
2024/02/20 11:25:34;;;;;;;0.10;0.10;;;;;;;;;;5040979;28;20302;-76
2024/02/20 11:28:11;;;;;;;0.10;0.10;;;;;;;;;;5069870;28;20399;-75
2024/02/20 11:30:37;;;;;;;0.10;0.10;;;;;;;;;;5042288;28;20311;-75
2024/02/20 11:33:12;;;;;;;0.10;0.10;;;;;;;;;;5068753;28;20202;-73
2024/02/20 11:35:38;;;;;;;0.10;0.10;;;;;;;;;;5042250;28;20400;-76
2024/02/20 11:38:06;;;;;;;0.10;0.10;;;;;;;;;;5068498;28;20261;-74
2024/02/20 11:40:33;;;;;;;0.10;0.10;;;;;;;;;;5040766;28;20456;-74
2024/02/20 11:43:00;;;;;;;0.10;0.10;;;;;;;;;;5069825;28;20464;-74
2024/02/20 11:45:29;;;;;;;0.30;0.30;;;;;;;;;;5039186;28;20435;-74
2024/02/20 11:48:02;;;;;;;0.10;0.10;;;;;;;;;;5070630;28;20211;-74
2024/02/20 11:50:31;;;;;;;0.10;0.10;;;;;;;;;;5038862;28;20219;-75
2024/02/20 11:53:01;;;;;;;0.10;0.10;;;;;;;;;;5070728;28;20208;-74
2024/02/20 11:55:27;;;;;;;0.10;0.10;;;;;;;;;;5039101;28;20417;-74
2024/02/20 11:57:54;;;;;;;0.10;0.10;;;;;;;;;;5070969;28;20252;-75
2024/02/20 12:00:21;;;;;;;0.10;0.10;;;;;;;;;;5035649;28;20219;-76
2024/02/20 12:02:48;;;;;;;0.10;0.10;;;;;;;;;;5073553;28;20214;-75
2024/02/20 12:05:21;;;;;;;0.10;0.10;;;;;;;;;;5035718;28;20206;-74
2024/02/20 12:07:48;;;;;;;0.10;0.10;;;;;;;;;;5072268;28;20253;-74
2024/02/20 12:10:16;;;;;;;0.10;0.10;;;;;;;;;;5035383;28;20238;-74
2024/02/20 12:12:42;;;;;;;0.13;0.13;;;;;;;;;;5073723;28;20396;-74
2024/02/20 12:15:10;;;;;;;0.10;0.10;;;;;;;;;;5039396;28;20521;-74
2024/02/20 12:17:40;;;;;;;0.10;0.10;;;;;;;;;;5075116;28;20254;-74
2024/02/20 12:20:09;;;;;;;0.10;0.10;;;;;;;;;;5043512;28;20273;-74
2024/02/20 12:22:35;;;;;;;0.10;0.10;;;;;;;;;;5032111;28;20219;-74
2024/02/20 12:25:08;;;;;;;0.10;0.10;;;;;;;;;;5043697;28;20299;-75
2024/02/20 12:27:34;;;;;;;0.08;0.08;;;;;;;;;;5032306;28;20212;-74
2024/02/20 12:30:00;;;;;;;0.00;0.00;;;;;;;;;;5043626;28;20204;-75
2024/02/20 12:32:27;;;;;;;0.00;0.00;;;;;;;;;;5064741;28;20262;-75
2024/02/20 12:34:54;;;;;;;0.10;0.10;;;;;;;;;;5043328;28;20211;-75
2024/02/20 12:37:21;;;;;;;0.03;0.03;;;;;;;;;;5065563;28;20244;-75
2024/02/20 12:39:47;;;;;;;0.10;0.10;;;;;;;;;;5043554;28;20330;-75
2024/02/20 12:42:17;;;;;;;0.10;0.10;;;;;;;;;;5065110;28;20275;-74
2024/02/20 12:44:43;;;;;;;0.10;0.10;;;;;;;;;;5043102;28;20268;-75
2024/02/20 12:47:10;;;;;;;0.10;0.10;;;;;;;;;;5065649;28;20478;-74
2024/02/20 12:49:37;;;;;;;0.15;0.15;;;;;;;;;;5043574;28;20393;-74
2024/02/20 12:52:04;;;;;;;0.10;0.10;;;;;;;;;;5063907;28;20241;-75
2024/02/20 12:54:30;;;;;;;0.10;0.10;;;;;;;;;;5044695;28;20202;-74
2024/02/20 12:56:58;;;;;;;0.10;0.10;;;;;;;;;;5062049;28;20533;-75
2024/02/20 12:59:26;;;;;;;0.10;0.10;;;;;;;;;;5045803;28;20205;-74
2024/02/20 13:01:52;;;;;;;0.90;0.43;;;;;;;;;;5060820;28;20495;-74
2024/02/20 13:04:19;;;;;;;0.10;0.10;;;;;;;;;;5047098;28;20256;-74
2024/02/20 13:06:45;;;;;;;0.10;0.10;;;;;;;;;;5058693;28;20242;-74
2024/02/20 13:09:12;;;;;;;0.10;0.10;;;;;;;;;;5049305;28;20487;-67
2024/02/20 13:11:38;;;;;;;0.10;0.10;;;;;;;;;;5056836;28;20249;-66
2024/02/20 13:14:04;;;;;;;0.10;0.10;;;;;;;;;;5050975;28;20274;-66
2024/02/20 13:16:32;;;;;;;0.10;0.10;;;;;;;;;;5054861;28;20246;-66
2024/02/20 13:18:59;;;;;;;0.10;0.10;;;;;;;;;;5052857;28;20444;-66
2024/02/20 13:21:25;;;;;;;0.10;0.10;;;;;;;;;;5053118;28;20286;-67
2024/02/20 13:23:52;;;;;;;0.10;0.10;;;;;;;;;;5054704;28;20237;-67
2024/02/20 13:26:18;;;;;;;0.10;0.10;;;;;;;;;;5051292;28;20252;-68
2024/02/20 13:28:44;;;;;;;0.10;0.10;;;;;;;;;;5055988;28;20281;-66
2024/02/20 13:31:11;;;;;;;0.10;0.10;;;;;;;;;;5049457;28;20302;-74
2024/02/20 13:33:39;;;;;;;0.10;0.10;;;;;;;;;;5058435;28;20232;-73
2024/02/20 13:36:07;;;;;;;0.20;0.20;;;;;;;;;;5047600;28;20260;-74
2024/02/20 13:38:39;;;;;;;0.10;0.10;;;;;;;;;;5059165;28;20206;-74
2024/02/20 13:41:06;;;;;;;0.10;0.10;;;;;;;;;;5048048;28;20249;-73
2024/02/20 13:43:32;;;;;;;0.73;0.73;;;;;;;;;;5060158;28;20300;-74
2024/02/20 13:46:00;;;;;;;0.10;0.10;;;;;;;;;;5049564;28;20240;-74
2024/02/20 13:48:26;;;;;;;0.10;0.10;;;;;;;;;;5064550;28;20245;-73
2024/02/20 13:50:54;;;;;;;0.20;0.20;;;;;;;;;;5047597;28;20264;-73
2024/02/20 13:53:21;;;;;;;0.10;0.10;;;;;;;;;;5066813;28;20440;-73
2024/02/20 13:55:49;;;;;;;0.10;0.10;;;;;;;;;;5046866;28;20241;-74
2024/02/20 13:58:16;;;;;;;0.10;0.10;;;;;;;;;;5067323;28;20209;-74
2024/02/20 14:00:44;;;;;;;0.13;0.13;;;;;;;;;;5045103;28;20241;-73
2024/02/20 14:03:11;;;;;;;0.10;0.10;;;;;;;;;;5068282;28;20371;-74
2024/02/20 14:05:37;;;;;;;0.13;0.13;;;;;;;;;;5043323;28;20305;-74
2024/02/20 14:08:06;;;;;;;0.10;0.10;;;;;;;;;;5070515;28;20245;-74
2024/02/20 14:10:32;;;;;;;0.10;0.10;;;;;;;;;;5042091;28;20293;-73
2024/02/20 14:13:00;;;;;;;0.10;0.10;;;;;;;;;;5071417;28;20442;-73
2024/02/20 14:15:27;;;;;;;0.10;0.10;;;;;;;;;;5040463;28;20202;-74
2024/02/20 14:17:53;;;;;;;0.10;0.10;;;;;;;;;;5072974;28;20215;-74
2024/02/20 14:20:20;;;;;;;0.10;0.10;;;;;;;;;;5038630;28;20206;-73
2024/02/20 14:22:46;;;;;;;0.23;0.23;;;;;;;;;;5074849;28;20322;-74
2024/02/20 14:25:16;;;;;;;0.10;0.10;;;;;;;;;;5036502;28;20278;-73
2024/02/20 14:27:42;;;;;;;0.10;0.10;;;;;;;;;;5076005;28;20246;-73
2024/02/20 14:30:09;;;;;;;0.10;0.10;;;;;;;;;;5043113;28;20211;-73
2024/02/20 14:32:36;;;;;;;0.20;0.20;;;;;;;;;;5077321;28;20221;-73
2024/02/20 14:35:02;;;;;;;1.00;0.40;;;;;;;;;;5045724;28;20225;-73
2024/02/20 14:37:29;;;;;;;0.10;0.10;;;;;;;;;;5067367;28;20245;-73
2024/02/20 14:39:55;;;;;;;0.10;0.10;;;;;;;;;;5045332;28;20200;-74
2024/02/20 14:42:23;;;;;;;0.10;0.10;;;;;;;;;;5067494;28;20303;-72